Time;durP1;ratioP1;P1;durP2;ratioP2;P2;SDS_P1;SDS_P2;PMS_P1;PMS_P2;Temp;Humidity;BMP_temperature;BMP_pressure;BME280_temperature;BME280_humidity;BME280_pressure;Samples;Min_cycle;Max_cycle;Signal;HPM_P1;HPM_P2
2022/04/02 04:02:37;;;;;;;14.90;13.60;;;1.80;99.90;;;;;;4955426;29;20467;-64
2022/04/02 04:05:06;;;;;;;15.80;14.30;;;1.80;99.90;;;;;;4956721;29;20973;-63
2022/04/02 04:07:33;;;;;;;16.23;14.33;;;1.70;99.90;;;;;;4956996;28;20460;-63
2022/04/02 04:10:00;;;;;;;15.77;14.27;;;1.70;99.90;;;;;;4957164;29;20841;-65
2022/04/02 04:12:27;;;;;;;17.70;16.13;;;1.70;99.90;;;;;;4957059;29;20487;-64
2022/04/02 04:14:53;;;;;;;17.53;16.13;;;1.60;99.90;;;;;;4957390;28;20472;-63
2022/04/02 04:17:21;;;;;;;17.03;15.43;;;1.60;99.90;;;;;;4957594;28;20467;-64
2022/04/02 04:19:50;;;;;;;18.37;16.67;;;1.60;99.90;;;;;;4957351;28;20460;-63
2022/04/02 04:22:17;;;;;;;17.47;16.00;;;1.60;99.90;;;;;;4956553;28;21073;-63
2022/04/02 04:24:44;;;;;;;17.67;16.03;;;1.60;99.90;;;;;;4956686;28;20462;-63
2022/04/02 04:27:10;;;;;;;18.30;16.57;;;1.50;99.90;;;;;;4957783;28;20463;-63
2022/04/02 04:29:37;;;;;;;18.90;17.03;;;1.50;99.90;;;;;;4956516;28;20599;-63
2022/04/02 04:32:06;;;;;;;19.50;17.10;;;1.40;99.90;;;;;;4956920;28;20479;-63
2022/04/02 04:34:33;;;;;;;19.10;17.30;;;1.40;99.90;;;;;;4956737;28;20459;-64
2022/04/02 04:37:01;;;;;;;20.33;18.20;;;1.30;99.90;;;;;;4956369;28;20462;-64
2022/04/02 04:39:28;;;;;;;19.43;17.73;;;1.40;99.90;;;;;;4956207;28;20488;-63
2022/04/02 04:41:55;;;;;;;21.43;19.53;;;1.30;99.90;;;;;;4956400;28;20516;-64
2022/04/02 04:44:21;;;;;;;20.50;18.60;;;1.20;99.90;;;;;;4956643;28;20866;-64
2022/04/02 04:46:48;;;;;;;21.10;19.20;;;1.20;99.90;;;;;;4956753;28;20459;-64
2022/04/02 04:49:15;;;;;;;22.57;20.33;;;1.20;99.90;;;;;;4960558;28;20585;-65
2022/04/02 04:51:42;;;;;;;20.53;18.40;;;1.10;99.90;;;;;;4971001;28;20476;-65
2022/04/02 04:54:10;;;;;;;21.13;19.13;;;1.10;99.90;;;;;;4972535;28;20458;-64
2022/04/02 04:56:37;;;;;;;20.53;18.63;;;1.20;99.90;;;;;;4969147;28;20506;-65
2022/04/02 04:59:04;;;;;;;21.63;19.67;;;1.20;99.90;;;;;;4957375;28;20463;-65
2022/04/02 05:01:30;;;;;;;21.47;19.57;;;1.20;99.90;;;;;;4956542;28;20490;-63
2022/04/02 05:03:57;;;;;;;20.40;18.40;;;1.20;99.90;;;;;;4956644;28;20461;-65
2022/04/02 05:06:24;;;;;;;18.73;17.00;;;1.20;99.90;;;;;;4956220;28;20457;-65
2022/04/02 05:08:50;;;;;;;19.90;18.20;;;1.20;99.90;;;;;;4956246;28;20456;-63
2022/04/02 05:11:19;;;;;;;19.27;17.57;;;1.20;99.90;;;;;;4956096;28;20482;-64
2022/04/02 05:13:45;;;;;;;19.60;17.80;;;1.20;99.90;;;;;;4956301;28;20457;-63
2022/04/02 05:16:12;;;;;;;19.07;17.30;;;1.20;99.90;;;;;;4962299;28;20462;-64
2022/04/02 05:18:40;;;;;;;19.17;17.37;;;1.20;99.90;;;;;;4965687;28;20454;-64
2022/04/02 05:21:07;;;;;;;18.83;17.03;;;1.10;99.90;;;;;;4961298;28;20477;-64
2022/04/02 05:23:34;;;;;;;19.23;17.43;;;1.10;99.90;;;;;;4957580;28;20459;-64
2022/04/02 05:26:00;;;;;;;19.87;18.07;;;1.00;99.90;;;;;;4956909;28;20957;-64
2022/04/02 05:28:28;;;;;;;17.57;15.97;;;1.00;99.90;;;;;;4957046;28;20827;-65
2022/04/02 05:30:55;;;;;;;18.80;17.20;;;1.10;99.90;;;;;;4956455;28;20920;-64
2022/04/02 05:33:22;;;;;;;18.53;16.90;;;1.10;99.90;;;;;;4959393;28;20461;-66
2022/04/02 05:35:49;;;;;;;17.67;16.27;;;1.10;99.90;;;;;;4960076;28;20487;-62
2022/04/02 05:38:15;;;;;;;16.70;15.30;;;1.10;99.90;;;;;;4960231;28;20469;-64
2022/04/02 05:40:42;;;;;;;17.97;16.33;;;1.20;99.90;;;;;;4959947;28;20475;-64
2022/04/02 05:43:09;;;;;;;16.40;14.90;;;1.20;99.90;;;;;;4960569;28;20480;-63
2022/04/02 05:45:37;;;;;;;18.03;16.47;;;1.30;99.90;;;;;;4959988;28;20479;-63
2022/04/02 05:48:05;;;;;;;17.33;15.53;;;1.40;99.90;;;;;;4959791;28;20518;-63
2022/04/02 05:50:31;;;;;;;16.20;14.60;;;1.40;99.90;;;;;;4963557;28;20459;-63
2022/04/02 05:52:59;;;;;;;14.30;13.00;;;1.40;99.90;;;;;;4975767;28;20455;-65
2022/04/02 05:55:26;;;;;;;14.07;12.77;;;1.40;99.90;;;;;;4966350;28;20459;-64
2022/04/02 05:57:53;;;;;;;13.27;11.77;;;1.40;99.90;;;;;;4960109;28;20565;-64
2022/04/02 06:00:21;;;;;;;14.60;13.30;;;1.40;99.90;;;;;;4959218;28;20972;-64
2022/04/02 06:02:49;;;;;;;15.10;13.63;;;1.40;99.90;;;;;;4959217;28;20909;-63
2022/04/02 06:05:16;;;;;;;14.00;12.90;;;1.30;99.90;;;;;;4960539;28;20459;-63
2022/04/02 06:07:43;;;;;;;12.70;11.70;;;1.40;99.90;;;;;;4964127;28;20491;-64
2022/04/02 06:10:11;;;;;;;17.03;13.30;;;1.40;99.90;;;;;;4961080;28;20534;-63
2022/04/02 06:12:38;;;;;;;12.20;11.23;;;1.40;99.90;;;;;;4960026;28;20460;-64
2022/04/02 06:15:06;;;;;;;14.40;13.00;;;1.40;99.90;;;;;;4959595;28;20487;-62
2022/04/02 06:17:33;;;;;;;13.60;12.40;;;1.30;99.90;;;;;;4959476;28;20458;-63
2022/04/02 06:20:01;;;;;;;12.40;11.20;;;1.40;99.90;;;;;;4959666;28;20965;-63
2022/04/02 06:22:28;;;;;;;11.70;10.80;;;1.40;99.90;;;;;;4959777;28;20485;-64
2022/04/02 06:24:55;;;;;;;14.57;13.23;;;1.50;99.90;;;;;;4959951;28;20462;-65
2022/04/02 06:27:21;;;;;;;11.90;10.87;;;1.40;99.90;;;;;;4959654;28;20459;-64
2022/04/02 06:29:48;;;;;;;12.90;11.90;;;1.50;99.90;;;;;;4959094;28;20490;-64
2022/04/02 06:32:15;;;;;;;12.20;11.30;;;1.40;99.90;;;;;;4959148;28;20491;-64
2022/04/02 06:34:42;;;;;;;13.17;12.07;;;1.50;99.90;;;;;;4959491;28;20453;-65
2022/04/02 06:37:10;;;;;;;11.80;10.90;;;1.50;99.90;;;;;;4958910;28;20469;-64
2022/04/02 06:39:36;;;;;;;12.20;10.93;;;1.50;99.90;;;;;;4958792;28;20449;-64
2022/04/02 06:42:04;;;;;;;12.10;11.20;;;1.60;99.90;;;;;;4958931;28;20477;-63
2022/04/02 06:44:30;;;;;;;13.00;11.80;;;1.60;99.90;;;;;;4958657;28;20950;-63
2022/04/02 06:46:59;;;;;;;14.07;12.87;;;1.60;99.90;;;;;;4958278;28;20494;-64
2022/04/02 06:49:26;;;;;;;12.87;11.77;;;1.70;99.90;;;;;;4958699;28;20472;-64
2022/04/02 06:51:53;;;;;;;12.13;11.03;;;1.70;99.90;;;;;;4959000;28;20486;-64
2022/04/02 06:54:21;;;;;;;12.90;11.80;;;1.70;99.90;;;;;;4958891;28;20522;-64
2022/04/02 06:56:48;;;;;;;11.17;10.27;;;1.60;99.90;;;;;;4958834;28;20540;-64
2022/04/02 06:59:15;;;;;;;13.00;11.27;;;1.60;99.90;;;;;;4958430;28;20490;-64
2022/04/02 07:01:42;;;;;;;11.40;10.50;;;1.60;99.90;;;;;;4958337;28;20989;-64
2022/04/02 07:04:08;;;;;;;12.77;11.70;;;1.60;99.90;;;;;;4958514;28;20450;-64
2022/04/02 07:06:37;;;;;;;11.07;10.27;;;1.60;99.90;;;;;;4958177;28;20464;-64
2022/04/02 07:09:04;;;;;;;12.50;11.50;;;1.70;99.90;;;;;;4958458;28;20464;-64
2022/04/02 07:11:32;;;;;;;12.57;11.47;;;1.70;99.90;;;;;;4957779;28;20593;-65
2022/04/02 07:14:00;;;;;;;13.37;12.07;;;1.70;99.90;;;;;;4958454;28;20931;-62
2022/04/02 07:16:28;;;;;;;12.30;11.20;;;1.80;99.90;;;;;;4958436;28;20502;-64
2022/04/02 07:18:57;;;;;;;11.30;10.20;;;2.50;99.90;;;;;;4958190;28;20527;-63
2022/04/02 07:21:27;;;;;;;12.30;11.20;;;3.00;99.90;;;;;;4958688;28;20479;-64
2022/04/02 07:23:54;;;;;;;10.47;9.57;;;3.40;99.90;;;;;;4958854;28;20866;-64
2022/04/02 07:26:22;;;;;;;8.40;7.60;;;3.70;99.90;;;;;;4958586;28;20452;-63
2022/04/02 07:28:52;;;;;;;7.87;7.27;;;3.80;99.90;;;;;;4958439;28;20467;-64
2022/04/02 07:31:19;;;;;;;7.73;7.13;;;3.80;99.90;;;;;;4959763;28;20882;-63
2022/04/02 07:33:45;;;;;;;8.00;7.40;;;3.90;99.90;;;;;;4958600;28;20863;-63
2022/04/02 07:36:21;;;;;;;7.50;6.83;;;4.00;99.90;;;;;;4958034;28;20460;-64
2022/04/02 07:39:00;;;;;;;7.13;6.53;;;4.10;99.90;;;;;;4958366;28;20440;-64
2022/04/02 07:41:37;;;;;;;7.50;6.73;;;4.20;99.90;;;;;;4958173;28;20527;-64
2022/04/02 07:44:16;;;;;;;7.30;6.70;;;4.20;99.90;;;;;;4958615;28;20444;-64
2022/04/02 07:46:45;;;;;;;7.90;7.30;;;4.30;99.90;;;;;;4959006;28;20448;-63
2022/04/02 07:49:13;;;;;;;7.90;7.27;;;4.20;99.90;;;;;;4957819;28;20464;-63
2022/04/02 07:51:41;;;;;;;7.63;6.93;;;4.20;99.90;;;;;;4957406;28;20515;-63
2022/04/02 07:54:10;;;;;;;7.80;7.20;;;4.10;99.90;;;;;;4958043;28;20877;-62
2022/04/02 07:56:38;;;;;;;7.47;6.97;;;4.10;99.90;;;;;;4957554;28;20444;-63
2022/04/02 07:59:12;;;;;;;6.90;6.40;;;4.00;99.90;;;;;;4957872;28;20510;-63
2022/04/02 08:01:40;;;;;;;7.10;6.60;;;4.00;99.90;;;;;;4957543;28;20486;-63
2022/04/02 08:04:09;;;;;;;6.83;6.27;;;4.20;99.90;;;;;;4957810;28;20487;-62
2022/04/02 08:06:36;;;;;;;7.10;6.60;;;4.30;99.90;;;;;;4957081;28;20459;-63
2022/04/02 08:09:04;;;;;;;7.67;6.80;;;4.40;99.90;;;;;;4957450;28;20436;-64
2022/04/02 08:11:32;;;;;;;7.07;6.40;;;4.50;99.90;;;;;;4957152;28;20850;-65
2022/04/02 08:14:00;;;;;;;8.13;7.43;;;4.40;99.90;;;;;;4957450;28;20455;-66
2022/04/02 08:16:29;;;;;;;7.73;7.23;;;4.20;99.90;;;;;;4956910;28;20456;-66
2022/04/02 08:18:57;;;;;;;8.07;7.47;;;4.00;99.90;;;;;;4960107;28;20499;-64
2022/04/02 08:21:26;;;;;;;7.80;7.10;;;3.80;99.90;;;;;;4964571;28;20483;-64
2022/04/02 08:23:53;;;;;;;7.27;6.67;;;3.90;99.90;;;;;;4967240;28;20462;-63
2022/04/02 08:26:28;;;;;;;7.43;6.73;;;4.00;99.90;;;;;;4964859;28;20507;-63
2022/04/02 08:29:10;;;;;;;7.07;6.57;;;4.20;99.90;;;;;;4960294;28;20447;-63
2022/04/02 08:31:57;;;;;;;7.93;7.33;;;4.00;99.90;;;;;;4959739;28;20499;-63
2022/04/02 08:34:35;;;;;;;9.00;8.30;;;3.70;99.90;;;;;;4958179;28;20440;-63
2022/04/02 08:37:12;;;;;;;8.30;7.60;;;3.60;99.90;;;;;;4959643;28;20448;-64
2022/04/02 08:39:57;;;;;;;8.90;8.00;;;3.40;99.90;;;;;;4957541;28;20854;-64
2022/04/02 08:42:54;;;;;;;10.00;9.10;;;3.00;99.90;;;;;;4957333;28;20479;-63
2022/04/02 08:45:28;;;;;;;10.67;9.70;;;2.90;99.90;;;;;;4957152;28;20461;-63
2022/04/02 08:48:21;;;;;;;9.70;9.00;;;2.80;99.90;;;;;;4957187;28;20502;-63
2022/04/02 08:50:50;;;;;;;10.90;9.60;;;2.60;99.90;;;;;;4956165;28;21004;-63
2022/04/02 08:53:23;;;;;;;11.63;10.63;;;2.60;99.90;;;;;;4956458;28;20470;-64
2022/04/02 08:55:51;;;;;;;10.47;9.67;;;2.60;99.90;;;;;;4956905;28;20540;-63
2022/04/02 08:58:56;;;;;;;12.20;10.60;;;2.60;99.90;;;;;;4956530;28;20555;-64
2022/04/02 09:01:27;;;;;;;11.37;10.27;;;2.60;99.90;;;;;;4956040;28;20494;-64
2022/04/02 09:04:38;;;;;;;11.87;10.77;;;2.40;99.90;;;;;;4956765;28;20452;-65
2022/04/02 09:07:52;;;;;;;10.80;9.90;;;2.50;99.90;;;;;;4956204;28;20449;-63
2022/04/02 09:10:56;;;;;;;11.97;10.73;;;2.30;99.90;;;;;;4957352;28;20490;-64
2022/04/02 09:14:00;;;;;;;12.50;11.20;;;2.40;99.90;;;;;;4957447;28;20449;-63
2022/04/02 09:16:29;;;;;;;11.23;10.13;;;2.40;99.90;;;;;;4956337;28;20449;-65
2022/04/02 09:19:13;;;;;;;12.90;11.67;;;2.20;99.90;;;;;;4956121;28;20958;-64
2022/04/02 09:21:57;;;;;;;12.77;11.47;;;2.10;99.90;;;;;;4955718;28;20819;-66
2022/04/02 09:24:43;;;;;;;13.30;12.00;;;2.10;99.90;;;;;;4956275;28;20475;-63
2022/04/02 09:27:40;;;;;;;13.33;12.23;;;2.10;99.90;;;;;;4960925;28;20454;-64
2022/04/02 09:30:16;;;;;;;13.27;12.00;;;2.20;99.90;;;;;;4963166;28;20447;-64
2022/04/02 09:33:20;;;;;;;13.10;11.90;;;2.20;99.90;;;;;;4957300;28;20449;-64
2022/04/02 09:36:09;;;;;;;13.13;11.83;;;2.10;99.90;;;;;;4955990;28;20450;-64
2022/04/02 09:39:11;;;;;;;13.20;12.00;;;2.00;99.90;;;;;;4956051;28;20485;-64
2022/04/02 09:42:09;;;;;;;14.40;13.07;;;1.90;99.90;;;;;;4955915;28;20993;-63
2022/04/02 09:44:53;;;;;;;13.53;12.43;;;1.90;99.90;;;;;;4956171;28;20439;-63
2022/04/02 09:47:24;;;;;;;15.20;12.30;;;2.00;99.90;;;;;;4956416;28;20451;-63
2022/04/02 09:50:08;;;;;;;13.13;12.10;;;2.00;99.90;;;;;;4955930;28;20444;-64
2022/04/02 09:52:37;;;;;;;13.30;12.10;;;2.10;99.90;;;;;;4955646;28;20503;-64
2022/04/02 09:55:08;;;;;;;14.57;13.17;;;2.10;99.90;;;;;;4955790;28;20526;-63
2022/04/02 09:58:05;;;;;;;13.90;12.60;;;2.10;99.90;;;;;;4955575;28;20450;-63
2022/04/02 10:00:41;;;;;;;13.90;12.57;;;2.10;99.90;;;;;;4955416;28;20887;-63
2022/04/02 10:03:13;;;;;;;13.87;12.57;;;2.20;99.90;;;;;;4956221;28;20442;-67
2022/04/02 10:05:45;;;;;;;14.63;10.10;;;2.20;99.90;;;;;;4957282;28;20440;-64
2022/04/02 10:08:20;;;;;;;13.40;12.00;;;2.10;99.90;;;;;;4956533;28;20459;-65
2022/04/02 10:10:51;;;;;;;13.20;12.00;;;2.10;99.90;;;;;;4955459;28;21016;-64
2022/04/02 10:13:18;;;;;;;12.63;11.53;;;2.00;99.90;;;;;;4956030;28;20446;-64
2022/04/02 10:15:48;;;;;;;13.60;12.30;;;2.10;99.90;;;;;;4955884;28;20472;-63
2022/04/02 10:18:20;;;;;;;13.53;12.43;;;2.10;99.90;;;;;;4956666;28;20455;-64
2022/04/02 10:20:49;;;;;;;12.47;11.23;;;2.10;99.90;;;;;;4959885;28;20474;-64
2022/04/02 10:23:22;;;;;;;12.27;11.17;;;2.20;99.90;;;;;;4959260;28;20465;-64
2022/04/02 10:26:02;;;;;;;13.10;11.80;;;2.20;99.90;;;;;;4959106;28;20451;-64
2022/04/02 10:28:32;;;;;;;13.03;11.73;;;2.30;99.90;;;;;;4958913;28;20835;-63
2022/04/02 10:31:01;;;;;;;12.37;11.17;;;2.30;99.90;;;;;;4959289;28;20488;-62
2022/04/02 10:33:36;;;;;;;12.23;11.30;;;2.30;99.90;;;;;;4959148;28;20560;-63
2022/04/02 10:36:07;;;;;;;13.17;12.07;;;2.30;99.90;;;;;;4959443;28;20520;-64
2022/04/02 10:38:35;;;;;;;12.33;11.23;;;2.30;99.90;;;;;;4959085;28;20451;-63
2022/04/02 10:41:09;;;;;;;13.27;11.97;;;2.30;99.90;;;;;;4959353;28;20604;-65
2022/04/02 10:43:41;;;;;;;12.77;11.57;;;2.20;99.90;;;;;;4959463;28;20452;-64
2022/04/02 10:46:09;;;;;;;13.77;12.50;;;2.20;99.90;;;;;;4964760;28;20443;-65
2022/04/02 10:48:54;;;;;;;12.53;11.33;;;2.20;99.90;;;;;;4963874;28;20566;-66
2022/04/02 10:51:23;;;;;;;13.68;12.27;;;2.20;99.90;;;;;;4958888;28;20463;-67
2022/04/02 10:54:00;;;;;;;12.17;11.10;;;2.30;99.90;;;;;;4959317;28;20246;-63
2022/04/02 10:56:33;;;;;;;13.30;12.00;;;2.30;99.90;;;;;;4959028;28;20444;-65
2022/04/02 10:59:01;;;;;;;12.30;11.20;;;2.30;99.90;;;;;;4960321;28;20483;-63
2022/04/02 11:01:28;;;;;;;13.10;11.90;;;2.40;99.90;;;;;;4958958;28;20512;-63
2022/04/02 11:03:56;;;;;;;14.23;13.00;;;2.40;99.90;;;;;;4958835;28;20474;-63
2022/04/02 11:06:46;;;;;;;13.40;12.20;;;2.30;99.90;;;;;;4961715;28;20457;-63
2022/04/02 11:09:29;;;;;;;13.13;12.00;;;2.50;99.90;;;;;;4971938;28;20455;-65
2022/04/02 11:12:04;;;;;;;14.03;12.73;;;2.40;99.90;;;;;;4972045;28;20481;-65
2022/04/02 11:14:38;;;;;;;14.27;12.97;;;2.30;99.90;;;;;;4965183;28;20878;-64
2022/04/02 11:17:05;;;;;;;12.97;11.77;;;2.40;99.90;;;;;;4959267;28;20439;-64
2022/04/02 11:22:26;;;;;;;13.93;12.73;;;2.40;99.90;;;;;;4958422;29;20947;-64
2022/04/02 11:25:03;;;;;;;14.03;12.83;;;2.30;99.90;;;;;;4965555;28;20442;-67
2022/04/02 11:27:35;;;;;;;14.77;13.33;;;2.30;99.90;;;;;;4965099;28;20450;-68
2022/04/02 11:30:04;;;;;;;13.20;12.00;;;2.30;99.90;;;;;;4961009;28;20447;-65
2022/04/02 11:32:38;;;;;;;13.90;12.60;;;2.30;99.90;;;;;;4960886;28;20490;-65
2022/04/02 11:35:08;;;;;;;14.43;12.97;;;2.30;99.90;;;;;;4961027;28;20439;-65
2022/04/02 11:38:06;;;;;;;16.53;13.37;;;2.50;99.90;;;;;;4960217;28;20962;-65
2022/04/02 11:40:38;;;;;;;14.17;12.87;;;2.50;99.90;;;;;;4944900;28;20456;-66
2022/04/02 11:43:07;;;;;;;13.10;12.03;;;2.50;99.90;;;;;;4959432;28;20450;-67
2022/04/02 11:45:36;;;;;;;13.90;12.60;;;2.40;99.90;;;;;;4959224;28;20577;-66
2022/04/02 11:48:10;;;;;;;15.13;13.83;;;2.40;99.90;;;;;;4958996;28;20459;-65
2022/04/02 11:50:40;;;;;;;15.23;13.93;;;2.30;99.90;;;;;;4958447;28;20505;-67
2022/04/02 11:53:07;;;;;;;16.10;14.60;;;2.30;99.90;;;;;;4958366;28;20452;-65
2022/04/02 11:55:36;;;;;;;16.27;14.70;;;2.30;99.90;;;;;;4958134;28;20492;-67
2022/04/02 11:58:07;;;;;;;16.23;14.87;;;2.30;99.90;;;;;;4958162;28;20494;-65
2022/04/02 12:00:36;;;;;;;15.90;14.50;;;2.30;99.90;;;;;;4957887;28;20470;-65
2022/04/02 12:03:03;;;;;;;15.30;13.90;;;2.30;99.90;;;;;;4958713;28;20908;-65
2022/04/02 12:05:40;;;;;;;17.53;16.00;;;2.30;99.90;;;;;;4958183;28;20455;-65
2022/04/02 12:08:08;;;;;;;15.97;14.57;;;2.30;99.90;;;;;;4958019;28;20867;-66
2022/04/02 12:10:44;;;;;;;16.23;14.73;;;2.40;99.90;;;;;;4957572;28;20479;-65
2022/04/02 12:13:12;;;;;;;15.50;14.07;;;2.30;99.90;;;;;;4957831;28;20443;-66
2022/04/02 12:15:39;;;;;;;17.30;15.67;;;2.40;99.90;;;;;;4958440;28;20463;-66
2022/04/02 12:18:08;;;;;;;16.10;14.60;;;2.50;99.90;;;;;;4957848;28;20494;-66
2022/04/02 12:20:37;;;;;;;14.60;13.40;;;2.60;99.90;;;;;;4957290;28;20577;-65
2022/04/02 12:23:09;;;;;;;16.00;14.50;;;2.60;99.90;;;;;;4957254;28;20463;-64
2022/04/02 12:25:36;;;;;;;16.37;15.00;;;2.50;99.90;;;;;;4957912;28;20479;-64
2022/04/02 12:28:12;;;;;;;17.30;15.23;;;2.40;99.90;;;;;;4957130;28;20469;-65
2022/04/02 12:30:42;;;;;;;16.27;14.77;;;2.40;99.90;;;;;;4956796;28;20537;-66
2022/04/02 12:33:11;;;;;;;16.83;15.13;;;2.30;99.90;;;;;;4956999;28;20561;-65
2022/04/02 12:35:38;;;;;;;16.37;14.77;;;2.40;99.90;;;;;;4956901;28;20455;-65
2022/04/02 12:38:10;;;;;;;15.90;14.30;;;2.30;99.90;;;;;;4956731;28;20489;-65
2022/04/02 12:40:41;;;;;;;16.13;14.60;;;2.30;99.90;;;;;;4956822;28;20478;-65
2022/04/02 12:43:10;;;;;;;16.13;14.63;;;2.40;99.90;;;;;;4961843;28;20447;-65
2022/04/02 12:45:38;;;;;;;16.33;14.80;;;2.40;99.90;;;;;;4968811;28;20488;-66
2022/04/02 12:48:10;;;;;;;16.53;14.93;;;2.50;99.90;;;;;;4960727;28;20459;-64
2022/04/02 12:50:38;;;;;;;15.10;13.80;;;2.60;99.90;;;;;;4956918;28;20478;-65
2022/04/02 12:53:06;;;;;;;14.80;13.50;;;2.70;99.90;;;;;;4957327;28;20483;-65
2022/04/02 12:55:34;;;;;;;15.70;14.30;;;2.80;99.90;;;;;;4956845;28;20460;-65
2022/04/02 12:58:05;;;;;;;15.50;13.97;;;2.80;99.90;;;;;;4957220;28;20479;-65
2022/04/02 13:00:34;;;;;;;13.13;12.00;;;2.70;99.90;;;;;;4958184;28;20471;-65
2022/04/02 13:03:03;;;;;;;14.87;13.37;;;2.50;99.90;;;;;;4964494;28;20451;-65
2022/04/02 13:05:44;;;;;;;14.93;13.60;;;2.40;99.90;;;;;;4961784;28;20466;-65
2022/04/02 13:08:24;;;;;;;17.80;13.47;;;2.40;99.90;;;;;;4957165;28;20443;-65
2022/04/02 13:10:54;;;;;;;15.20;13.90;;;2.30;99.90;;;;;;4956610;28;20511;-65
2022/04/02 13:13:35;;;;;;;15.53;14.13;;;2.30;99.90;;;;;;4956702;28;20484;-66
2022/04/02 13:16:04;;;;;;;16.57;14.97;;;2.30;99.90;;;;;;4956199;28;20482;-65
2022/04/02 13:21:22;;;;;;;17.47;15.90;;;2.50;99.90;;;;;;4957428;29;20959;-64
2022/04/02 13:24:18;;;;;;;18.03;16.23;;;2.40;99.90;;;;;;4956480;28;20466;-65
2022/04/02 13:26:54;;;;;;;17.77;15.57;;;2.40;99.90;;;;;;4956094;28;20498;-64
2022/04/02 13:29:33;;;;;;;17.53;16.00;;;2.40;99.90;;;;;;4957242;28;20446;-65
2022/04/02 13:32:14;;;;;;;16.57;15.17;;;2.30;99.90;;;;;;4956512;28;20541;-65
2022/04/02 13:34:46;;;;;;;17.33;15.50;;;2.30;99.90;;;;;;4956704;28;20444;-66
2022/04/02 13:37:21;;;;;;;17.10;15.40;;;2.30;99.90;;;;;;4956646;28;20572;-66
2022/04/02 13:39:53;;;;;;;16.27;14.77;;;2.30;99.90;;;;;;4956609;28;20453;-65
2022/04/02 13:42:28;;;;;;;16.97;15.37;;;2.30;99.90;;;;;;4956575;28;20550;-65
2022/04/02 13:44:58;;;;;;;16.30;14.70;;;2.40;99.90;;;;;;4956428;28;20478;-64
2022/04/02 13:47:27;;;;;;;19.13;17.47;;;2.30;99.90;;;;;;4956188;28;20911;-65
2022/04/02 13:49:57;;;;;;;17.57;15.87;;;2.20;99.90;;;;;;4955915;28;20518;-65
2022/04/02 13:52:29;;;;;;;17.83;16.20;;;2.30;99.90;;;;;;4956106;28;20487;-65
2022/04/02 13:55:03;;;;;;;17.30;15.60;;;2.50;99.90;;;;;;4959441;28;20775;-65
2022/04/02 13:57:32;;;;;;;18.17;16.57;;;2.60;99.90;;;;;;4960333;28;20451;-65
2022/04/02 14:00:04;;;;;;;19.33;17.53;;;2.50;99.90;;;;;;4960852;28;20463;-65
2022/04/02 14:02:32;;;;;;;18.80;17.10;;;2.50;99.90;;;;;;4959964;28;20569;-65
2022/04/02 14:05:03;;;;;;;17.00;15.30;;;2.40;99.90;;;;;;4959561;28;20469;-65
2022/04/02 14:07:34;;;;;;;19.07;17.10;;;2.40;99.90;;;;;;4959567;28;20458;-65
2022/04/02 14:10:08;;;;;;;19.73;18.00;;;2.30;99.90;;;;;;4959411;28;20443;-65
2022/04/02 14:12:39;;;;;;;18.30;16.50;;;2.30;99.90;;;;;;4959344;28;20526;-65
2022/04/02 14:15:11;;;;;;;18.53;16.60;;;2.40;99.90;;;;;;4959357;28;20445;-65
2022/04/02 14:17:41;;;;;;;19.17;17.27;;;2.60;99.90;;;;;;4959145;28;20829;-65
2022/04/02 14:20:10;;;;;;;19.10;17.40;;;2.70;99.90;;;;;;4960043;28;20466;-65
2022/04/02 14:22:48;;;;;;;18.67;16.97;;;2.70;99.90;;;;;;4960345;28;20475;-65
2022/04/02 14:25:28;;;;;;;18.30;16.60;;;2.70;99.90;;;;;;4959653;28;20450;-64
2022/04/02 14:28:27;;;;;;;18.80;17.00;;;2.70;99.90;;;;;;4963460;28;20446;-66
2022/04/02 14:31:30;;;;;;;19.87;17.97;;;2.60;99.90;;;;;;4965488;28;20488;-65
2022/04/02 14:34:37;;;;;;;18.47;16.77;;;2.60;99.90;;;;;;4932096;28;20451;-65
2022/04/02 14:37:35;;;;;;;18.57;16.87;;;2.50;99.90;;;;;;4960764;28;20945;-66
2022/04/02 14:40:14;;;;;;;21.43;18.13;;;2.50;99.90;;;;;;4960126;28;20443;-66
2022/04/02 14:43:13;;;;;;;21.03;19.03;;;2.60;99.90;;;;;;4960076;28;20982;-64
2022/04/02 14:46:11;;;;;;;20.13;18.23;;;2.60;99.90;;;;;;4963946;29;20507;-66
2022/04/02 14:49:28;;;;;;;20.03;18.20;;;2.80;99.90;;;;;;4963132;28;20491;-66
2022/04/02 14:52:42;;;;;;;20.27;18.37;;;2.70;99.90;;;;;;4885194;29;20986;-65
2022/04/02 14:55:35;;;;;;;22.00;19.83;;;2.70;99.90;;;;;;4961006;28;20487;-64
2022/04/02 14:58:54;;;;;;;20.90;18.80;;;2.70;99.90;;;;;;4964291;28;20464;-64
2022/04/02 15:01:52;;;;;;;19.30;17.30;;;2.80;99.90;;;;;;4962975;28;20495;-65
2022/04/02 15:05:00;;;;;;;20.93;19.03;;;2.80;99.90;;;;;;4965045;28;20471;-65
2022/04/02 15:07:54;;;;;;;20.30;18.40;;;2.70;99.90;;;;;;4965267;29;20474;-65
2022/04/02 15:10:33;;;;;;;20.50;18.30;;;2.60;99.90;;;;;;4969958;28;20448;-65
2022/04/02 15:13:03;;;;;;;21.73;19.63;;;2.60;99.90;;;;;;4964700;28;20556;-65
2022/04/02 15:15:31;;;;;;;24.27;21.73;;;2.60;99.90;;;;;;4959002;28;20483;-65
2022/04/02 15:18:00;;;;;;;24.93;22.10;;;2.50;99.90;;;;;;4958685;28;20444;-65
2022/04/02 15:20:28;;;;;;;25.67;22.70;;;2.40;99.90;;;;;;4958597;28;20467;-66
2022/04/02 15:23:07;;;;;;;25.17;20.50;;;2.30;99.90;;;;;;4958672;28;20506;-64
2022/04/02 15:25:40;;;;;;;22.20;19.87;;;2.40;99.90;;;;;;4958405;28;20466;-66
2022/04/02 15:28:09;;;;;;;23.17;20.77;;;2.40;99.90;;;;;;4958954;28;21014;-67
2022/04/02 15:30:45;;;;;;;22.50;20.23;;;2.40;99.90;;;;;;4959032;28;20495;-66
2022/04/02 15:33:14;;;;;;;22.30;20.00;;;2.40;99.90;;;;;;4958774;28;20805;-66
2022/04/02 15:35:44;;;;;;;20.80;18.70;;;2.40;99.90;;;;;;4958372;28;20460;-66
2022/04/02 15:38:33;;;;;;;20.67;18.67;;;2.50;99.90;;;;;;4958795;28;20450;-65
2022/04/02 15:41:03;;;;;;;21.97;19.67;;;2.50;99.90;;;;;;4959256;28;20493;-65
2022/04/02 15:43:32;;;;;;;19.80;17.90;;;2.60;99.90;;;;;;4957830;28;20444;-65
2022/04/02 15:46:28;;;;;;;21.63;19.43;;;2.50;99.90;;;;;;4958423;28;20443;-65
2022/04/02 15:49:30;;;;;;;17.90;16.10;;;2.50;99.90;;;;;;4958200;28;20439;-67
2022/04/02 15:52:17;;;;;;;20.40;16.27;;;2.60;99.90;;;;;;4957935;28;20478;-65
2022/04/02 15:54:53;;;;;;;19.60;17.70;;;2.60;99.90;;;;;;4958730;28;20458;-64
2022/04/02 15:57:22;;;;;;;17.97;16.10;;;2.60;99.90;;;;;;4958135;28;20444;-65
2022/04/02 16:00:26;;;;;;;18.87;17.07;;;2.60;99.90;;;;;;4957830;28;20459;-67
2022/04/02 16:02:54;;;;;;;20.37;18.37;;;2.70;99.90;;;;;;4958326;28;20434;-65
2022/04/02 16:05:28;;;;;;;19.80;17.73;;;2.70;99.90;;;;;;4957497;28;20511;-65
2022/04/02 16:08:13;;;;;;;17.73;15.90;;;2.70;99.90;;;;;;4958337;28;20770;-65
2022/04/02 16:10:45;;;;;;;17.73;15.80;;;2.70;99.90;;;;;;4958215;28;20530;-66
2022/04/02 16:13:24;;;;;;;17.80;16.10;;;2.80;99.90;;;;;;4957346;28;20497;-66
2022/04/02 16:16:07;;;;;;;19.07;17.03;;;2.70;99.90;;;;;;4963213;28;20444;-65
2022/04/02 16:18:36;;;;;;;18.90;17.10;;;2.80;99.90;;;;;;4971068;28;20436;-65
2022/04/02 16:21:18;;;;;;;19.53;17.63;;;2.70;99.90;;;;;;4961102;28;20486;-64
2022/04/02 16:23:50;;;;;;;20.80;18.60;;;2.60;99.90;;;;;;4957658;28;20468;-64
2022/04/02 16:26:17;;;;;;;21.33;19.27;;;2.50;99.90;;;;;;4958298;28;20443;-66
2022/04/02 16:28:46;;;;;;;19.17;17.17;;;2.60;99.90;;;;;;4957666;28;20453;-65
2022/04/02 16:31:15;;;;;;;17.83;16.23;;;2.60;99.90;;;;;;4957198;28;20626;-64
2022/04/02 16:33:50;;;;;;;18.43;16.50;;;2.60;99.90;;;;;;4957911;28;20483;-64
2022/04/02 16:36:22;;;;;;;18.03;16.20;;;2.60;99.90;;;;;;4957105;28;20812;-65
2022/04/02 16:38:52;;;;;;;18.20;16.40;;;2.60;99.90;;;;;;4957488;28;20476;-65
2022/04/02 16:41:34;;;;;;;18.40;16.50;;;2.50;99.90;;;;;;4956919;28;20985;-64
2022/04/02 16:44:29;;;;;;;17.17;15.27;;;2.50;99.90;;;;;;4957791;28;20900;-65
2022/04/02 16:47:03;;;;;;;17.93;16.23;;;2.50;99.90;;;;;;4922246;28;20518;-65
2022/04/02 16:49:31;;;;;;;17.60;15.80;;;2.50;99.90;;;;;;4956786;28;20440;-64
2022/04/02 16:52:04;;;;;;;18.47;16.67;;;2.50;99.90;;;;;;4956449;28;20471;-64
2022/04/02 16:54:31;;;;;;;17.60;15.83;;;2.50;99.90;;;;;;4956641;28;20491;-64
2022/04/02 16:56:58;;;;;;;18.60;16.70;;;2.40;99.90;;;;;;4956414;28;20443;-64
2022/04/02 16:59:25;;;;;;;17.73;16.07;;;2.40;99.90;;;;;;4956836;28;20486;-65
2022/04/02 17:01:53;;;;;;;19.10;17.20;;;2.40;99.90;;;;;;4956371;28;20495;-67
2022/04/02 17:04:22;;;;;;;19.27;17.47;;;2.20;99.90;;;;;;4956518;28;20866;-65
2022/04/02 17:06:49;;;;;;;18.13;16.33;;;2.30;99.90;;;;;;4956239;28;20799;-66
2022/04/02 17:09:25;;;;;;;20.47;18.33;;;2.30;99.90;;;;;;4956509;28;20461;-67
2022/04/02 17:11:52;;;;;;;18.13;16.27;;;2.30;99.90;;;;;;4956934;28;20479;-65
2022/04/02 17:14:27;;;;;;;18.90;17.00;;;2.30;99.90;;;;;;4955857;28;20994;-65
2022/04/02 17:16:56;;;;;;;18.53;16.70;;;2.30;99.90;;;;;;4957200;28;20451;-65
2022/04/02 17:19:32;;;;;;;17.73;16.00;;;2.20;99.90;;;;;;4956330;28;20459;-66